Time;durP1;ratioP1;P1;durP2;ratioP2;P2;SDS_P1;SDS_P2;PMS_P1;PMS_P2;Temp;Humidity;BMP_temperature;BMP_pressure;BME280_temperature;BME280_humidity;BME280_pressure;Samples;Min_cycle;Max_cycle;Signal;HPM_P1;HPM_P2
2021/09/10 00:02:07;;;;;;;8.88;6.57;;;;;;;;;;5100783;28;20452;-80
2021/09/10 00:04:33;;;;;;;8.63;6.68;;;;;;;;;;5100510;28;20040;-79
2021/09/10 00:07:01;;;;;;;9.23;6.32;;;;;;;;;;5100883;28;20407;-80
2021/09/10 00:09:27;;;;;;;8.45;5.90;;;;;;;;;;5102243;28;20040;-80
2021/09/10 00:11:54;;;;;;;8.55;6.30;;;;;;;;;;5103908;28;20044;-80
2021/09/10 00:14:20;;;;;;;8.55;6.07;;;;;;;;;;5102164;28;20044;-80
2021/09/10 00:16:46;;;;;;;9.32;6.40;;;;;;;;;;5099805;28;20168;-80
2021/09/10 00:19:13;;;;;;;9.23;7.70;;;;;;;;;;5099747;28;20040;-80
2021/09/10 00:21:39;;;;;;;7.63;5.88;;;;;;;;;;5100159;28;20361;-80
2021/09/10 00:24:07;;;;;;;8.68;6.15;;;;;;;;;;5099606;28;20512;-80
2021/09/10 00:26:34;;;;;;;8.07;5.95;;;;;;;;;;5099728;28;20052;-80
2021/09/10 00:29:00;;;;;;;8.98;6.20;;;;;;;;;;5099495;28;20040;-80
2021/09/10 00:31:27;;;;;;;8.30;6.10;;;;;;;;;;5099599;28;20044;-80
2021/09/10 00:33:53;;;;;;;10.18;6.97;;;;;;;;;;5100577;28;20063;-80
2021/09/10 00:36:19;;;;;;;8.70;6.43;;;;;;;;;;5100143;28;20040;-80
2021/09/10 00:38:46;;;;;;;9.40;6.15;;;;;;;;;;5099837;28;20206;-80
2021/09/10 00:41:14;;;;;;;9.48;6.88;;;;;;;;;;5099902;28;20427;-79
2021/09/10 00:43:40;;;;;;;9.73;6.68;;;;;;;;;;5099892;28;20423;-80
2021/09/10 00:46:06;;;;;;;8.48;7.15;;;;;;;;;;5099678;28;20048;-80
2021/09/10 00:48:33;;;;;;;9.07;6.63;;;;;;;;;;5099299;28;20047;-80
2021/09/10 00:51:00;;;;;;;8.10;5.90;;;;;;;;;;5099537;28;20044;-80
2021/09/10 00:53:27;;;;;;;10.25;6.63;;;;;;;;;;5098769;28;20044;-80
2021/09/10 00:55:54;;;;;;;9.27;6.72;;;;;;;;;;5099513;28;20040;-82
2021/09/10 00:58:21;;;;;;;9.27;6.50;;;;;;;;;;5099581;28;20040;-80
2021/09/10 01:00:48;;;;;;;8.10;5.88;;;;;;;;;;5099655;28;20047;-80
2021/09/10 01:03:15;;;;;;;9.25;7.05;;;;;;;;;;5082291;22;20652;-69
2021/09/10 01:05:42;;;;;;;11.18;7.63;;;;;;;;;;5063228;28;20056;-69
2021/09/10 01:08:11;;;;;;;10.75;6.53;;;;;;;;;;5072000;28;20059;-69
2021/09/10 01:10:38;;;;;;;10.15;6.13;;;;;;;;;;5071578;28;20053;-70
2021/09/10 01:13:05;;;;;;;11.98;5.97;;;;;;;;;;5070069;28;20438;-70
2021/09/10 01:15:33;;;;;;;10.00;6.85;;;;;;;;;;5071696;28;20513;-70
2021/09/10 01:18:00;;;;;;;11.52;7.38;;;;;;;;;;5071826;28;20518;-69
2021/09/10 01:20:26;;;;;;;9.02;6.25;;;;;;;;;;5071672;28;20048;-69
2021/09/10 01:22:53;;;;;;;8.27;6.43;;;;;;;;;;5071452;28;20049;-69
2021/09/10 01:25:21;;;;;;;9.73;6.45;;;;;;;;;;5070286;28;20044;-70
2021/09/10 01:27:50;;;;;;;9.50;6.35;;;;;;;;;;5051699;28;20064;-69
2021/09/10 01:30:18;;;;;;;11.73;6.90;;;;;;;;;;5051442;28;20632;-69
2021/09/10 01:32:45;;;;;;;9.38;6.32;;;;;;;;;;5055741;28;20057;-69
2021/09/10 01:35:12;;;;;;;10.75;6.85;;;;;;;;;;5070924;28;20048;-69
2021/09/10 01:37:39;;;;;;;7.78;5.85;;;;;;;;;;5071084;28;20063;-69
2021/09/10 01:40:08;;;;;;;10.80;6.85;;;;;;;;;;5071591;28;20051;-69
2021/09/10 01:42:36;;;;;;;8.18;6.60;;;;;;;;;;5070446;28;20048;-70
2021/09/10 01:45:04;;;;;;;10.65;6.57;;;;;;;;;;5067722;28;20409;-69
2021/09/10 01:47:31;;;;;;;8.15;6.40;;;;;;;;;;5071513;28;20381;-70
2021/09/10 01:49:58;;;;;;;11.77;6.68;;;;;;;;;;5071340;28;20059;-69
2021/09/10 01:52:24;;;;;;;9.02;6.22;;;;;;;;;;5067271;28;20052;-69
2021/09/10 01:54:51;;;;;;;9.05;7.03;;;;;;;;;;5068024;28;20052;-69
2021/09/10 01:57:17;;;;;;;9.32;6.68;;;;;;;;;;5071238;28;20052;-69
2021/09/10 01:59:46;;;;;;;9.07;6.18;;;;;;;;;;5070476;28;20060;-69
2021/09/10 02:02:12;;;;;;;10.45;7.50;;;;;;;;;;5056148;28;20117;-70
2021/09/10 02:04:39;;;;;;;9.38;6.60;;;;;;;;;;5051893;28;20063;-69
2021/09/10 02:07:06;;;;;;;8.82;6.70;;;;;;;;;;5051631;28;20049;-69
2021/09/10 02:09:33;;;;;;;10.10;6.50;;;;;;;;;;5051040;28;20049;-69
2021/09/10 02:12:00;;;;;;;10.13;6.95;;;;;;;;;;5051338;28;20142;-69
2021/09/10 02:14:27;;;;;;;10.45;7.88;;;;;;;;;;5068396;28;20134;-69
2021/09/10 02:16:55;;;;;;;9.57;6.57;;;;;;;;;;5071413;28;20391;-69
2021/09/10 02:19:21;;;;;;;8.70;6.75;;;;;;;;;;5071363;28;20056;-70
2021/09/10 02:21:48;;;;;;;9.02;6.65;;;;;;;;;;5073460;28;20057;-69
2021/09/10 02:24:15;;;;;;;11.40;6.55;;;;;;;;;;5065810;28;20501;-69
2021/09/10 02:26:41;;;;;;;9.35;6.57;;;;;;;;;;5055362;28;20503;-69
2021/09/10 02:29:08;;;;;;;9.05;7.00;;;;;;;;;;5054793;28;20049;-69
2021/09/10 02:31:34;;;;;;;10.18;6.32;;;;;;;;;;5070800;28;20053;-69
2021/09/10 02:34:02;;;;;;;9.63;6.18;;;;;;;;;;5074742;28;20044;-69
2021/09/10 02:36:29;;;;;;;9.55;7.22;;;;;;;;;;5074260;28;20048;-69
2021/09/10 02:38:55;;;;;;;10.38;7.65;;;;;;;;;;5074497;28;20051;-69
2021/09/10 02:41:22;;;;;;;8.80;6.47;;;;;;;;;;5074739;28;20041;-69
2021/09/10 02:43:48;;;;;;;10.05;6.88;;;;;;;;;;5063202;28;20483;-69
2021/09/10 02:46:15;;;;;;;9.55;7.18;;;;;;;;;;5054601;28;20059;-69
2021/09/10 02:48:41;;;;;;;10.93;7.93;;;;;;;;;;5074200;28;20052;-70
2021/09/10 02:51:09;;;;;;;10.25;7.22;;;;;;;;;;5074632;28;20056;-69
2021/09/10 02:53:35;;;;;;;9.50;6.90;;;;;;;;;;5071549;28;20048;-69
2021/09/10 02:56:02;;;;;;;11.02;7.53;;;;;;;;;;5074018;28;20051;-69
2021/09/10 02:58:28;;;;;;;12.30;8.57;;;;;;;;;;5074423;28;20044;-69
2021/09/10 03:00:59;;;;;;;10.02;7.53;;;;;;;;;;5074259;28;20055;-69
2021/09/10 03:03:26;;;;;;;8.63;6.80;;;;;;;;;;5066188;28;20052;-69
2021/09/10 03:05:52;;;;;;;9.75;6.80;;;;;;;;;;5054127;28;20056;-69
2021/09/10 03:08:20;;;;;;;8.20;6.75;;;;;;;;;;5054034;28;20056;-69
2021/09/10 03:10:46;;;;;;;11.88;6.53;;;;;;;;;;5054039;28;20049;-68
2021/09/10 03:13:13;;;;;;;7.97;6.78;;;;;;;;;;5060022;28;20487;-69
2021/09/10 03:15:39;;;;;;;10.65;6.70;;;;;;;;;;5074163;28;20056;-69
2021/09/10 03:18:06;;;;;;;8.57;6.18;;;;;;;;;;5074043;28;20041;-69
2021/09/10 03:20:32;;;;;;;8.13;6.93;;;;;;;;;;5073862;28;20056;-69
2021/09/10 03:22:59;;;;;;;10.15;7.35;;;;;;;;;;5070177;28;20411;-69
2021/09/10 03:25:27;;;;;;;8.70;6.57;;;;;;;;;;5053920;28;20071;-69
2021/09/10 03:27:53;;;;;;;8.57;6.28;;;;;;;;;;5073252;28;20410;-69
2021/09/10 03:30:21;;;;;;;10.25;6.50;;;;;;;;;;5074075;28;20502;-69
2021/09/10 03:32:47;;;;;;;12.98;6.93;;;;;;;;;;5070432;28;20515;-69
2021/09/10 03:35:15;;;;;;;7.95;6.05;;;;;;;;;;5053752;28;20045;-69
2021/09/10 03:37:42;;;;;;;9.95;6.80;;;;;;;;;;5053463;28;20059;-68
2021/09/10 03:40:09;;;;;;;10.90;6.90;;;;;;;;;;5053824;28;20483;-69
2021/09/10 03:42:37;;;;;;;9.13;5.97;;;;;;;;;;5053786;28;20049;-69
2021/09/10 03:45:07;;;;;;;11.60;7.25;;;;;;;;;;5053645;28;20395;-69
2021/09/10 03:47:33;;;;;;;8.15;6.63;;;;;;;;;;5053708;28;20055;-69
2021/09/10 03:50:00;;;;;;;10.38;6.90;;;;;;;;;;5053607;28;20406;-68
2021/09/10 03:52:26;;;;;;;9.85;7.03;;;;;;;;;;5065606;28;20048;-69
2021/09/10 03:54:53;;;;;;;9.73;6.32;;;;;;;;;;5066860;28;20049;-69
2021/09/10 03:57:19;;;;;;;8.45;6.53;;;;;;;;;;5073463;28;20044;-69
2021/09/10 03:59:47;;;;;;;9.90;7.03;;;;;;;;;;5073409;28;20044;-69
2021/09/10 04:02:13;;;;;;;10.82;6.97;;;;;;;;;;5062759;28;20052;-69
2021/09/10 04:04:40;;;;;;;10.30;7.68;;;;;;;;;;5052911;28;20061;-68
2021/09/10 04:07:06;;;;;;;11.32;8.35;;;;;;;;;;5053117;28;20063;-69
2021/09/10 04:09:33;;;;;;;8.90;7.32;;;;;;;;;;5053341;28;20056;-69
2021/09/10 04:11:59;;;;;;;9.88;6.60;;;;;;;;;;5053179;28;20053;-69
2021/09/10 04:14:26;;;;;;;10.50;7.30;;;;;;;;;;5052924;28;20494;-69
2021/09/10 04:16:53;;;;;;;9.48;7.63;;;;;;;;;;5053109;28;20495;-69
2021/09/10 04:19:20;;;;;;;11.45;7.18;;;;;;;;;;5052968;28;20057;-70
2021/09/10 04:21:46;;;;;;;11.50;7.93;;;;;;;;;;5063003;28;20044;-68
2021/09/10 04:24:17;;;;;;;10.65;8.20;;;;;;;;;;5052901;28;20048;-69
2021/09/10 04:26:44;;;;;;;12.27;9.02;;;;;;;;;;5052773;28;20049;-68
2021/09/10 04:29:10;;;;;;;11.60;8.02;;;;;;;;;;5052128;28;20044;-68
2021/09/10 04:31:37;;;;;;;11.75;7.60;;;;;;;;;;5056848;28;20482;-69
2021/09/10 04:34:05;;;;;;;10.23;8.10;;;;;;;;;;5063844;28;20053;-69
2021/09/10 04:36:31;;;;;;;9.55;7.20;;;;;;;;;;5052792;28;20067;-69
2021/09/10 04:38:58;;;;;;;11.57;7.45;;;;;;;;;;5052679;28;20419;-69
2021/09/10 04:41:24;;;;;;;10.32;6.88;;;;;;;;;;5068608;28;20048;-68
2021/09/10 04:43:51;;;;;;;10.93;7.78;;;;;;;;;;5070631;28;20052;-70
2021/09/10 04:46:17;;;;;;;10.68;6.38;;;;;;;;;;5070657;28;20402;-69
2021/09/10 04:48:44;;;;;;;15.10;8.18;;;;;;;;;;5071938;28;20498;-70
2021/09/10 04:51:14;;;;;;;9.90;7.07;;;;;;;;;;5071208;28;20044;-70
2021/09/10 04:53:40;;;;;;;9.15;7.05;;;;;;;;;;5072340;28;20071;-71
2021/09/10 04:56:07;;;;;;;10.52;7.03;;;;;;;;;;5070420;28;20048;-70
2021/09/10 04:58:34;;;;;;;10.63;7.80;;;;;;;;;;5071704;28;20482;-68
2021/09/10 05:01:00;;;;;;;10.65;6.90;;;;;;;;;;5071057;28;20403;-70
2021/09/10 05:03:27;;;;;;;13.82;7.85;;;;;;;;;;5070453;28;20053;-71
2021/09/10 05:05:53;;;;;;;10.15;7.40;;;;;;;;;;5070612;28;20049;-71
2021/09/10 05:08:21;;;;;;;9.57;7.10;;;;;;;;;;5070683;28;20475;-69
2021/09/10 05:10:47;;;;;;;11.60;7.05;;;;;;;;;;5070499;28;20048;-69
2021/09/10 05:13:14;;;;;;;8.63;6.75;;;;;;;;;;5071248;28;20051;-70
2021/09/10 05:15:40;;;;;;;11.73;8.70;;;;;;;;;;5071134;28;20048;-69
2021/09/10 05:18:07;;;;;;;11.38;7.95;;;;;;;;;;5070903;28;20057;-71
2021/09/10 05:20:33;;;;;;;10.50;6.93;;;;;;;;;;5067401;28;20449;-69
2021/09/10 05:23:00;;;;;;;10.57;7.20;;;;;;;;;;5069720;28;20059;-71
2021/09/10 05:25:28;;;;;;;7.82;6.22;;;;;;;;;;5069326;28;20063;-69
2021/09/10 05:27:54;;;;;;;11.10;7.47;;;;;;;;;;5066845;28;20040;-69
2021/09/10 05:30:21;;;;;;;34.97;9.32;;;;;;;;;;5068164;28;20037;-69
2021/09/10 05:32:47;;;;;;;14.10;7.43;;;;;;;;;;5069060;28;20044;-69
2021/09/10 05:35:15;;;;;;;12.18;6.20;;;;;;;;;;5070235;28;20049;-70
2021/09/10 05:37:42;;;;;;;12.32;7.28;;;;;;;;;;5067185;28;20048;-69
2021/09/10 05:40:09;;;;;;;17.65;10.68;;;;;;;;;;5071252;28;20041;-70
2021/09/10 05:42:37;;;;;;;17.98;11.60;;;;;;;;;;5070279;28;20041;-69
2021/09/10 05:45:05;;;;;;;14.48;9.57;;;;;;;;;;5070022;28;20053;-69
2021/09/10 05:47:32;;;;;;;10.35;8.00;;;;;;;;;;5068501;28;20051;-70
2021/09/10 05:49:58;;;;;;;12.05;8.55;;;;;;;;;;5069244;28;20044;-70
2021/09/10 05:52:25;;;;;;;11.60;7.68;;;;;;;;;;5070948;28;20056;-70
2021/09/10 05:54:51;;;;;;;10.52;7.63;;;;;;;;;;5070060;28;20548;-70
2021/09/10 05:57:17;;;;;;;12.38;8.48;;;;;;;;;;5063526;28;20052;-71
2021/09/10 05:59:45;;;;;;;13.13;10.00;;;;;;;;;;5074374;28;20083;-69
2021/09/10 06:02:12;;;;;;;11.88;8.48;;;;;;;;;;5075724;28;20044;-69
2021/09/10 06:04:38;;;;;;;14.48;8.85;;;;;;;;;;5075793;28;20044;-69
2021/09/10 06:07:05;;;;;;;10.65;7.88;;;;;;;;;;5075331;28;20059;-70
2021/09/10 06:09:32;;;;;;;10.00;7.93;;;;;;;;;;5075336;28;20052;-69
2021/09/10 06:11:58;;;;;;;11.23;7.75;;;;;;;;;;5074911;28;20051;-70
2021/09/10 06:14:25;;;;;;;11.25;7.45;;;;;;;;;;5074981;28;20052;-70
2021/09/10 06:16:53;;;;;;;25.88;8.48;;;;;;;;;;5075062;28;20483;-70
2021/09/10 06:19:19;;;;;;;19.70;9.75;;;;;;;;;;5075252;28;20064;-70
2021/09/10 06:21:46;;;;;;;13.63;8.10;;;;;;;;;;5075221;28;20399;-70
2021/09/10 06:24:12;;;;;;;8.75;7.10;;;;;;;;;;5075311;28;20075;-70
2021/09/10 06:26:38;;;;;;;12.95;7.07;;;;;;;;;;5075256;28;20391;-70
2021/09/10 06:29:05;;;;;;;9.70;6.68;;;;;;;;;;5075111;28;20799;-70
2021/09/10 06:31:31;;;;;;;11.13;7.70;;;;;;;;;;5075242;28;20387;-70
2021/09/10 06:33:59;;;;;;;9.77;7.63;;;;;;;;;;5075237;28;20391;-70
2021/09/10 06:36:26;;;;;;;14.02;7.90;;;;;;;;;;5075072;28;20052;-70
2021/09/10 06:38:52;;;;;;;13.73;7.95;;;;;;;;;;5074919;28;20055;-71
2021/09/10 06:41:19;;;;;;;8.18;6.63;;;;;;;;;;5074230;28;20049;-70
2021/09/10 06:43:45;;;;;;;9.50;6.90;;;;;;;;;;5074876;28;20076;-70
2021/09/10 06:46:12;;;;;;;10.85;7.70;;;;;;;;;;5074616;28;20072;-70
2021/09/10 06:48:38;;;;;;;9.63;7.47;;;;;;;;;;5074227;28;20048;-70
2021/09/10 06:51:06;;;;;;;9.88;7.35;;;;;;;;;;5074049;28;20131;-70
2021/09/10 06:53:34;;;;;;;9.32;6.47;;;;;;;;;;5074400;28;20045;-70
2021/09/10 06:56:00;;;;;;;9.43;6.97;;;;;;;;;;5074481;28;20084;-70
2021/09/10 06:58:27;;;;;;;9.95;6.70;;;;;;;;;;5067656;28;20491;-70
2021/09/10 07:00:53;;;;;;;12.80;7.43;;;;;;;;;;5072292;28;20044;-71
2021/09/10 07:03:20;;;;;;;9.80;6.65;;;;;;;;;;5083701;28;20044;-73
2021/09/10 07:05:46;;;;;;;9.20;6.72;;;;;;;;;;5070118;28;20052;-68
2021/09/10 07:08:14;;;;;;;14.18;8.43;;;;;;;;;;5076915;28;20059;-69
2021/09/10 07:10:40;;;;;;;11.35;8.85;;;;;;;;;;5077808;28;20052;-70
2021/09/10 07:13:07;;;;;;;12.75;9.07;;;;;;;;;;5078140;28;20044;-71
2021/09/10 07:15:33;;;;;;;11.75;9.00;;;;;;;;;;5077801;28;20056;-71
2021/09/10 07:18:00;;;;;;;10.85;7.95;;;;;;;;;;5078640;28;20052;-69
2021/09/10 07:20:26;;;;;;;11.38;8.07;;;;;;;;;;5078023;28;20046;-70
2021/09/10 07:22:53;;;;;;;9.60;7.95;;;;;;;;;;5077810;28;20060;-71
2021/09/10 07:25:20;;;;;;;10.93;7.85;;;;;;;;;;5078105;28;20057;-71
2021/09/10 07:27:47;;;;;;;11.30;8.00;;;;;;;;;;5077830;28;20394;-71
2021/09/10 07:30:14;;;;;;;10.10;7.32;;;;;;;;;;5077026;28;20044;-71
2021/09/10 07:32:40;;;;;;;10.10;6.65;;;;;;;;;;5077236;28;20056;-71
2021/09/10 07:35:08;;;;;;;9.75;7.85;;;;;;;;;;5059024;28;20421;-69
2021/09/10 07:37:37;;;;;;;9.88;7.43;;;;;;;;;;5077534;28;20462;-69
2021/09/10 07:40:04;;;;;;;11.27;7.60;;;;;;;;;;5075205;28;20048;-70
2021/09/10 07:42:32;;;;;;;9.95;7.10;;;;;;;;;;5074197;28;20051;-69
2021/09/10 07:44:59;;;;;;;10.43;8.30;;;;;;;;;;5073461;28;20051;-70
2021/09/10 07:47:25;;;;;;;8.80;7.30;;;;;;;;;;5074149;28;20053;-69
2021/09/10 07:49:52;;;;;;;9.70;7.80;;;;;;;;;;5073803;28;20044;-69
2021/09/10 07:52:18;;;;;;;10.20;7.82;;;;;;;;;;5073869;28;20410;-69
2021/09/10 07:54:45;;;;;;;11.63;7.28;;;;;;;;;;5073450;28;20510;-69
2021/09/10 07:57:11;;;;;;;8.38;6.78;;;;;;;;;;5073121;28;20052;-69
2021/09/10 07:59:39;;;;;;;12.52;6.57;;;;;;;;;;5059187;28;20041;-69
2021/09/10 08:02:06;;;;;;;10.25;6.88;;;;;;;;;;5067068;28;20044;-69
2021/09/10 08:04:32;;;;;;;8.20;6.85;;;;;;;;;;5073079;28;20056;-70
2021/09/10 08:06:59;;;;;;;11.50;6.78;;;;;;;;;;5073600;28;20546;-70
2021/09/10 08:09:25;;;;;;;8.13;6.28;;;;;;;;;;5072987;28;20044;-69
2021/09/10 08:11:52;;;;;;;8.27;6.78;;;;;;;;;;5072952;28;20050;-69
2021/09/10 08:14:18;;;;;;;9.63;7.00;;;;;;;;;;5072819;28;20048;-69
2021/09/10 08:16:46;;;;;;;10.30;7.68;;;;;;;;;;5072604;28;20071;-69
2021/09/10 08:19:12;;;;;;;8.15;6.03;;;;;;;;;;5071530;28;20045;-69
2021/09/10 08:21:39;;;;;;;8.02;7.00;;;;;;;;;;5072297;28;20501;-69
2021/09/10 08:24:09;;;;;;;9.73;7.10;;;;;;;;;;5070973;28;20063;-69
2021/09/10 08:26:35;;;;;;;9.05;7.13;;;;;;;;;;5069475;28;20101;-68
2021/09/10 08:29:02;;;;;;;9.32;6.95;;;;;;;;;;5072271;28;20052;-69
2021/09/10 08:31:31;;;;;;;8.68;7.78;;;;;;;;;;5072793;28;20477;-69
2021/09/10 08:34:00;;;;;;;10.32;6.82;;;;;;;;;;5072108;28;20055;-69
2021/09/10 08:36:27;;;;;;;9.18;6.85;;;;;;;;;;5071617;28;20553;-69
2021/09/10 08:38:54;;;;;;;9.60;7.70;;;;;;;;;;5071247;28;20049;-69
2021/09/10 08:41:24;;;;;;;8.20;6.38;;;;;;;;;;5071172;28;20048;-69
2021/09/10 08:43:51;;;;;;;10.32;7.20;;;;;;;;;;5071739;28;20052;-68
2021/09/10 08:46:17;;;;;;;11.85;7.35;;;;;;;;;;5071742;28;20059;-69
2021/09/10 08:48:45;;;;;;;8.13;6.93;;;;;;;;;;5072468;28;20071;-69
2021/09/10 08:51:13;;;;;;;11.43;7.90;;;;;;;;;;5072494;28;20040;-68
2021/09/10 08:53:40;;;;;;;11.13;7.13;;;;;;;;;;5072019;28;20053;-68
2021/09/10 08:56:06;;;;;;;10.40;7.13;;;;;;;;;;5072056;28;20049;-68
2021/09/10 08:58:33;;;;;;;9.35;7.28;;;;;;;;;;5067258;28;20502;-69
2021/09/10 09:01:00;;;;;;;10.20;7.30;;;;;;;;;;5068634;28;20091;-69
2021/09/10 09:03:27;;;;;;;10.50;7.72;;;;;;;;;;5067248;28;20056;-69
2021/09/10 09:05:54;;;;;;;10.98;7.50;;;;;;;;;;5071773;28;20400;-69
2021/09/10 09:08:22;;;;;;;9.05;7.15;;;;;;;;;;5071928;28;20467;-69
2021/09/10 09:10:56;;;;;;;11.18;7.15;;;;;;;;;;5071726;28;20056;-69
2021/09/10 09:13:24;;;;;;;11.73;6.90;;;;;;;;;;5070073;28;20059;-69
2021/09/10 09:16:15;;;;;;;10.40;7.15;;;;;;;;;;5071906;28;20402;-69
2021/09/10 09:18:43;;;;;;;8.80;7.18;;;;;;;;;;5070057;28;20040;-69
2021/09/10 09:21:10;;;;;;;7.75;6.28;;;;;;;;;;5071216;28;20414;-69
2021/09/10 09:23:38;;;;;;;9.18;7.32;;;;;;;;;;5071873;28;20059;-69
2021/09/10 09:26:14;;;;;;;10.40;7.45;;;;;;;;;;5071644;28;20056;-69
2021/09/10 09:28:41;;;;;;;10.05;6.85;;;;;;;;;;5071619;28;20059;-69
2021/09/10 09:31:09;;;;;;;10.55;8.02;;;;;;;;;;5071626;28;20040;-70
2021/09/10 09:33:37;;;;;;;8.65;7.55;;;;;;;;;;5071717;28;20414;-69
2021/09/10 09:36:06;;;;;;;12.48;7.32;;;;;;;;;;5071490;28;20127;-69
2021/09/10 09:38:34;;;;;;;9.18;7.13;;;;;;;;;;5071747;28;20543;-69
2021/09/10 09:41:03;;;;;;;9.60;6.43;;;;;;;;;;5071687;28;20513;-70
2021/09/10 09:43:32;;;;;;;8.27;6.97;;;;;;;;;;5071784;28;20063;-69
2021/09/10 09:45:59;;;;;;;8.07;6.78;;;;;;;;;;5071624;28;20410;-69
2021/09/10 09:48:27;;;;;;;7.53;6.45;;;;;;;;;;5071489;28;20074;-70
2021/09/10 09:50:55;;;;;;;10.38;6.50;;;;;;;;;;5071678;28;20056;-70
2021/09/10 09:53:22;;;;;;;7.82;6.05;;;;;;;;;;5071701;28;20051;-69
2021/09/10 09:55:49;;;;;;;9.18;6.50;;;;;;;;;;5070704;28;20048;-69
2021/09/10 09:58:17;;;;;;;8.30;5.85;;;;;;;;;;5055820;28;20532;-69
2021/09/10 10:00:46;;;;;;;8.65;6.45;;;;;;;;;;5059594;28;20045;-69
2021/09/10 10:03:13;;;;;;;7.93;6.10;;;;;;;;;;5063168;28;20049;-71
2021/09/10 10:06:11;;;;;;;7.30;5.75;;;;;;;;;;5070273;28;20055;-70
2021/09/10 10:08:42;;;;;;;8.35;6.22;;;;;;;;;;5065985;28;20470;-69
2021/09/10 10:11:13;;;;;;;9.35;5.85;;;;;;;;;;5057158;28;20041;-69
2021/09/10 10:13:41;;;;;;;7.55;6.03;;;;;;;;;;5051223;28;20049;-70
2021/09/10 10:16:08;;;;;;;8.68;5.82;;;;;;;;;;5051571;28;20075;-70
2021/09/10 10:18:43;;;;;;;7.88;5.85;;;;;;;;;;5055709;28;20478;-69
2021/09/10 10:21:11;;;;;;;7.32;5.90;;;;;;;;;;5067695;28;20057;-67
2021/09/10 10:23:56;;;;;;;6.63;5.63;;;;;;;;;;5070422;28;20048;-68
2021/09/10 10:26:38;;;;;;;6.68;4.93;;;;;;;;;;5069569;28;20083;-70
2021/09/10 10:29:11;;;;;;;9.05;5.97;;;;;;;;;;5070205;28;20769;-70
2021/09/10 10:32:02;;;;;;;7.35;5.78;;;;;;;;;;5070137;28;20076;-68
2021/09/10 10:34:29;;;;;;;5.47;4.53;;;;;;;;;;5067674;28;20470;-69
2021/09/10 10:36:56;;;;;;;6.07;5.22;;;;;;;;;;5069847;28;20052;-68
2021/09/10 10:39:32;;;;;;;6.30;5.18;;;;;;;;;;5070107;28;20494;-70
2021/09/10 10:42:04;;;;;;;6.28;5.53;;;;;;;;;;5071065;28;20041;-70
2021/09/10 10:44:50;;;;;;;5.13;4.55;;;;;;;;;;5071303;28;20048;-70
2021/09/10 10:47:19;;;;;;;5.90;4.38;;;;;;;;;;5072328;28;20444;-70
2021/09/10 10:49:46;;;;;;;6.18;4.47;;;;;;;;;;5073670;28;20045;-70
2021/09/10 10:52:37;;;;;;;5.80;4.70;;;;;;;;;;5073659;28;20040;-69
2021/09/10 10:55:19;;;;;;;7.55;4.90;;;;;;;;;;5072964;28;20055;-69
2021/09/10 10:57:46;;;;;;;8.13;4.82;;;;;;;;;;5073545;28;20044;-68
2021/09/10 11:00:47;;;;;;;6.25;4.50;;;;;;;;;;5072381;28;20067;-68
2021/09/10 11:03:33;;;;;;;5.25;4.50;;;;;;;;;;5067303;28;20052;-68
2021/09/10 11:06:29;;;;;;;7.55;4.32;;;;;;;;;;5074086;28;20045;-69
2021/09/10 11:08:55;;;;;;;5.50;4.30;;;;;;;;;;5074386;28;20056;-69
2021/09/10 11:11:26;;;;;;;5.85;4.90;;;;;;;;;;5074150;28;20454;-69
2021/09/10 11:13:52;;;;;;;5.22;4.15;;;;;;;;;;5074478;28;20096;-69
2021/09/10 11:16:31;;;;;;;7.40;4.20;;;;;;;;;;5073530;28;20411;-69
2021/09/10 11:18:58;;;;;;;8.25;4.13;;;;;;;;;;5061333;28;20127;-69
2021/09/10 11:21:29;;;;;;;13.82;5.10;;;;;;;;;;5074245;28;20139;-68
2021/09/10 11:23:56;;;;;;;5.63;4.25;;;;;;;;;;5074006;28;20479;-68
2021/09/10 11:26:34;;;;;;;6.43;4.22;;;;;;;;;;5073957;28;20055;-68
2021/09/10 11:29:08;;;;;;;5.63;4.15;;;;;;;;;;5073897;28;20079;-68
2021/09/10 11:31:36;;;;;;;4.63;4.07;;;;;;;;;;5074365;28;20053;-69
2021/09/10 11:34:03;;;;;;;7.03;4.65;;;;;;;;;;5073603;28;20052;-69
2021/09/10 11:36:29;;;;;;;7.03;4.57;;;;;;;;;;5073807;28;20053;-69
2021/09/10 11:39:04;;;;;;;5.15;4.43;;;;;;;;;;5073429;28;20058;-68
2021/09/10 11:41:31;;;;;;;5.13;3.83;;;;;;;;;;5073789;28;20067;-69
2021/09/10 11:44:06;;;;;;;5.60;3.95;;;;;;;;;;5073627;28;20055;-68
2021/09/10 11:46:33;;;;;;;6.38;4.40;;;;;;;;;;5073757;28;20153;-68
2021/09/10 11:49:01;;;;;;;5.38;4.32;;;;;;;;;;5073064;28;20055;-68
2021/09/10 11:51:38;;;;;;;21.45;5.45;;;;;;;;;;5073156;28;20040;-68
2021/09/10 11:54:10;;;;;;;7.13;4.25;;;;;;;;;;5072429;28;20483;-67
2021/09/10 11:56:36;;;;;;;8.13;4.70;;;;;;;;;;5073522;28;20045;-69
2021/09/10 11:59:16;;;;;;;8.45;6.15;;;;;;;;;;5073507;28;20052;-69
2021/09/10 12:01:43;;;;;;;6.22;4.90;;;;;;;;;;5070822;28;20056;-69
2021/09/10 12:04:13;;;;;;;5.70;4.43;;;;;;;;;;5070743;28;20053;-68
2021/09/10 12:06:46;;;;;;;5.60;4.35;;;;;;;;;;5062635;28;20060;-69
2021/09/10 12:09:15;;;;;;;6.63;4.53;;;;;;;;;;5053421;28;20049;-69
2021/09/10 12:12:06;;;;;;;7.03;4.82;;;;;;;;;;5053283;28;20052;-70
2021/09/10 12:14:37;;;;;;;6.95;5.10;;;;;;;;;;5053154;28;20472;-68
2021/09/10 12:17:06;;;;;;;5.93;5.15;;;;;;;;;;5053134;28;20430;-68
2021/09/10 12:19:34;;;;;;;11.60;6.30;;;;;;;;;;5052689;28;20056;-68
2021/09/10 12:22:00;;;;;;;7.70;5.13;;;;;;;;;;5052987;28;20045;-68
2021/09/10 12:24:26;;;;;;;6.78;4.88;;;;;;;;;;5052922;28;20479;-68
2021/09/10 12:26:54;;;;;;;7.85;4.93;;;;;;;;;;5052817;28;20060;-68
2021/09/10 12:29:23;;;;;;;6.45;4.75;;;;;;;;;;5052955;28;20044;-69
2021/09/10 12:31:49;;;;;;;6.55;5.10;;;;;;;;;;5052843;28;20048;-68
2021/09/10 12:34:16;;;;;;;5.38;4.30;;;;;;;;;;5052760;28;20049;-69
2021/09/10 12:36:46;;;;;;;6.40;4.65;;;;;;;;;;5052870;28;20084;-69
2021/09/10 12:39:12;;;;;;;8.18;4.88;;;;;;;;;;5052455;28;20111;-69
2021/09/10 12:41:39;;;;;;;6.60;5.20;;;;;;;;;;5052544;28;20045;-69
2021/09/10 12:44:08;;;;;;;9.38;7.82;;;;;;;;;;5052678;28;20475;-69
2021/09/10 12:46:35;;;;;;;7.95;6.45;;;;;;;;;;5052503;28;20060;-69
2021/09/10 12:49:02;;;;;;;6.68;5.97;;;;;;;;;;5052273;28;20053;-69
2021/09/10 12:51:28;;;;;;;7.32;5.50;;;;;;;;;;5052237;28;20418;-69
2021/09/10 12:53:56;;;;;;;7.82;5.38;;;;;;;;;;5052020;28;20064;-69
2021/09/10 12:56:23;;;;;;;8.63;5.55;;;;;;;;;;5052362;28;20056;-69
2021/09/10 12:58:49;;;;;;;8.80;5.57;;;;;;;;;;5052467;28;20076;-69
2021/09/10 13:01:16;;;;;;;6.82;5.30;;;;;;;;;;5052256;28;20463;-69
2021/09/10 13:03:43;;;;;;;6.03;5.00;;;;;;;;;;5060188;28;20371;-69
2021/09/10 13:06:09;;;;;;;7.65;5.30;;;;;;;;;;5069919;28;20462;-69
2021/09/10 13:08:36;;;;;;;7.10;5.28;;;;;;;;;;5053495;28;20060;-69
2021/09/10 13:11:04;;;;;;;6.03;5.45;;;;;;;;;;5052262;28;20049;-69
2021/09/10 13:13:30;;;;;;;7.15;4.85;;;;;;;;;;5052181;28;20053;-69
2021/09/10 13:15:59;;;;;;;6.65;5.25;;;;;;;;;;5052059;28;20482;-69
2021/09/10 13:18:25;;;;;;;6.60;5.30;;;;;;;;;;5051716;28;20057;-69
2021/09/10 13:20:52;;;;;;;7.28;5.07;;;;;;;;;;5051584;28;20056;-69
2021/09/10 13:23:18;;;;;;;8.90;4.93;;;;;;;;;;5051701;28;20059;-69
2021/09/10 13:25:45;;;;;;;6.22;4.65;;;;;;;;;;5051940;28;20069;-68
2021/09/10 13:28:13;;;;;;;6.07;4.90;;;;;;;;;;5051773;28;20053;-68
2021/09/10 13:30:39;;;;;;;7.53;5.53;;;;;;;;;;5051728;28;20049;-68
2021/09/10 13:33:05;;;;;;;5.32;4.25;;;;;;;;;;5051782;28;20048;-68
2021/09/10 13:35:32;;;;;;;8.07;4.55;;;;;;;;;;5051802;28;20064;-68
2021/09/10 13:37:58;;;;;;;6.32;4.50;;;;;;;;;;5051332;28;20053;-67
2021/09/10 13:40:24;;;;;;;6.10;5.05;;;;;;;;;;5051698;28;20056;-65
2021/09/10 13:42:53;;;;;;;5.60;4.90;;;;;;;;;;5051298;28;20048;-69
2021/09/10 13:45:20;;;;;;;6.10;5.10;;;;;;;;;;5051587;28;20135;-68
2021/09/10 13:47:47;;;;;;;7.68;4.97;;;;;;;;;;5051346;28;20045;-68
2021/09/10 13:50:13;;;;;;;8.02;5.13;;;;;;;;;;5051179;28;20056;-69
2021/09/10 13:52:40;;;;;;;7.68;4.80;;;;;;;;;;5051594;28;20052;-68
2021/09/10 13:55:06;;;;;;;6.00;4.35;;;;;;;;;;5051595;28;20081;-68
2021/09/10 13:57:33;;;;;;;8.82;5.10;;;;;;;;;;5051413;28;20053;-68
2021/09/10 13:59:59;;;;;;;5.72;4.30;;;;;;;;;;5051441;28;20049;-69
2021/09/10 14:02:27;;;;;;;4.88;4.28;;;;;;;;;;5051190;28;20045;-68
2021/09/10 14:04:54;;;;;;;6.78;4.97;;;;;;;;;;5062154;28;20052;-69
2021/09/10 14:07:21;;;;;;;10.38;5.55;;;;;;;;;;5059503;28;20045;-69
2021/09/10 14:09:47;;;;;;;5.40;4.18;;;;;;;;;;5070827;28;20475;-69
2021/09/10 14:12:14;;;;;;;5.72;4.22;;;;;;;;;;5071126;28;20045;-69
2021/09/10 14:14:40;;;;;;;7.63;4.40;;;;;;;;;;5052763;28;20588;-69
2021/09/10 14:17:07;;;;;;;6.88;4.50;;;;;;;;;;5052592;28;20053;-68
2021/09/10 14:19:34;;;;;;;6.53;4.45;;;;;;;;;;5055081;28;20052;-68
2021/09/10 14:22:01;;;;;;;5.78;4.30;;;;;;;;;;5054897;28;20048;-68
2021/09/10 14:24:27;;;;;;;6.35;4.43;;;;;;;;;;5055352;28;20041;-68
2021/09/10 14:26:54;;;;;;;5.75;4.78;;;;;;;;;;5055364;28;20068;-68
2021/09/10 14:29:20;;;;;;;6.63;4.88;;;;;;;;;;5058701;28;20063;-68
2021/09/10 14:31:47;;;;;;;6.30;5.32;;;;;;;;;;5068550;28;20064;-68
2021/09/10 14:34:13;;;;;;;5.75;4.90;;;;;;;;;;5072713;28;20059;-67
2021/09/10 14:36:41;;;;;;;5.25;4.43;;;;;;;;;;5072904;28;20059;-70
2021/09/10 14:39:08;;;;;;;6.38;4.30;;;;;;;;;;5073310;28;20051;-69
2021/09/10 14:41:34;;;;;;;14.52;4.88;;;;;;;;;;5073448;28;20045;-68
2021/09/10 14:44:00;;;;;;;8.57;5.10;;;;;;;;;;5072056;28;20044;-68